Time;durP1;ratioP1;P1;durP2;ratioP2;P2;SDS_P1;SDS_P2;PMS_P1;PMS_P2;Temp;Humidity;BMP_temperature;BMP_pressure;BME280_temperature;BME280_humidity;BME280_pressure;Samples;Min_cycle;Max_cycle;Signal;HPM_P1;HPM_P2
2021/05/27 00:00:18;;;;;;;9.05;7.40;;;;;;;;;;4418217;32;20313;-53
2021/05/27 00:02:43;;;;;;;13.45;7.78;;;;;;;;;;4418028;32;20221;-52
2021/05/27 00:05:10;;;;;;;11.70;8.30;;;;;;;;;;4417588;32;20233;-53
2021/05/27 00:07:35;;;;;;;10.23;8.57;;;;;;;;;;4403813;32;20289;-53
2021/05/27 00:10:01;;;;;;;10.70;7.87;;;;;;;;;;4417620;32;20201;-53
2021/05/27 00:12:27;;;;;;;8.98;7.65;;;;;;;;;;4408554;32;20572;-53
2021/05/27 00:14:52;;;;;;;9.45;7.82;;;;;;;;;;4404710;32;20228;-53
2021/05/27 00:17:18;;;;;;;15.23;9.18;;;;;;;;;;4405518;32;20534;-53
2021/05/27 00:19:44;;;;;;;12.65;8.02;;;;;;;;;;4415573;32;20213;-54
2021/05/27 00:22:10;;;;;;;9.73;8.40;;;;;;;;;;4420540;32;20319;-53
2021/05/27 00:24:38;;;;;;;17.20;7.95;;;;;;;;;;4420276;32;20553;-53
2021/05/27 00:27:05;;;;;;;14.70;8.82;;;;;;;;;;4420301;32;20224;-53
2021/05/27 00:29:31;;;;;;;13.15;9.05;;;;;;;;;;4405360;32;20248;-53
2021/05/27 00:31:57;;;;;;;13.48;7.47;;;;;;;;;;4415321;32;20545;-53
2021/05/27 00:34:22;;;;;;;12.05;8.60;;;;;;;;;;4420064;32;20283;-53
2021/05/27 00:36:48;;;;;;;11.60;9.27;;;;;;;;;;4419641;32;20361;-53
2021/05/27 00:39:13;;;;;;;13.65;8.52;;;;;;;;;;4420023;32;20236;-53
2021/05/27 00:41:39;;;;;;;9.57;8.23;;;;;;;;;;4420284;32;20251;-53
2021/05/27 00:44:21;;;;;;;12.18;9.40;;;;;;;;;;4419940;32;20197;-53
2021/05/27 00:46:47;;;;;;;9.95;8.95;;;;;;;;;;4419934;32;20220;-53
2021/05/27 00:49:12;;;;;;;14.93;8.77;;;;;;;;;;4419851;32;20193;-52
2021/05/27 00:51:38;;;;;;;10.57;8.88;;;;;;;;;;4419917;32;20293;-52
2021/05/27 00:54:04;;;;;;;10.75;8.15;;;;;;;;;;4419839;32;20201;-53
2021/05/27 00:56:29;;;;;;;14.05;8.85;;;;;;;;;;4419762;32;20217;-53
2021/05/27 00:58:55;;;;;;;10.45;9.30;;;;;;;;;;4419646;32;20228;-52
2021/05/27 01:01:21;;;;;;;10.95;8.18;;;;;;;;;;4405928;32;20294;-52
2021/05/27 01:03:46;;;;;;;12.32;9.00;;;;;;;;;;4419928;32;20205;-52
2021/05/27 01:06:12;;;;;;;20.92;10.23;;;;;;;;;;4419730;32;20248;-52
2021/05/27 01:08:37;;;;;;;10.48;9.20;;;;;;;;;;4419620;32;20706;-53
2021/05/27 01:11:04;;;;;;;11.40;9.27;;;;;;;;;;4405570;32;20365;-52
2021/05/27 01:13:31;;;;;;;13.55;8.85;;;;;;;;;;4404479;32;20209;-52
2021/05/27 01:15:57;;;;;;;13.23;9.27;;;;;;;;;;4390623;32;20221;-52
2021/05/27 01:18:24;;;;;;;14.70;9.48;;;;;;;;;;4406161;32;20323;-52
2021/05/27 01:20:53;;;;;;;13.23;9.23;;;;;;;;;;4419333;32;20205;-52
2021/05/27 01:23:20;;;;;;;18.45;10.18;;;;;;;;;;4419370;32;20209;-52
2021/05/27 01:25:49;;;;;;;12.68;8.85;;;;;;;;;;4419132;32;20258;-52
2021/05/27 01:28:14;;;;;;;12.40;9.40;;;;;;;;;;4419211;32;20452;-52
2021/05/27 01:30:41;;;;;;;11.93;9.38;;;;;;;;;;4419191;32;20713;-53
2021/05/27 01:33:12;;;;;;;11.12;9.38;;;;;;;;;;4405480;32;20229;-52
2021/05/27 01:35:38;;;;;;;15.60;9.20;;;;;;;;;;4413377;32;20213;-52
2021/05/27 01:38:14;;;;;;;14.48;8.30;;;;;;;;;;4404142;32;20677;-52
2021/05/27 01:40:40;;;;;;;7.95;7.15;;;;;;;;;;4390417;32;20221;-53
2021/05/27 01:43:05;;;;;;;12.43;8.13;;;;;;;;;;4407141;32;20653;-52
2021/05/27 01:45:31;;;;;;;11.93;7.60;;;;;;;;;;4419305;32;20325;-52
2021/05/27 01:47:57;;;;;;;10.60;8.07;;;;;;;;;;4419374;32;20279;-52
2021/05/27 01:50:22;;;;;;;10.10;8.65;;;;;;;;;;4418998;32;20272;-52
2021/05/27 01:52:49;;;;;;;9.90;8.75;;;;;;;;;;4405100;32;20258;-52
2021/05/27 01:55:15;;;;;;;12.32;8.65;;;;;;;;;;4419016;32;20265;-52
2021/05/27 01:57:41;;;;;;;15.05;10.18;;;;;;;;;;4419004;32;20229;-53
2021/05/27 02:00:08;;;;;;;14.65;9.65;;;;;;;;;;4418664;32;20383;-53
2021/05/27 02:02:34;;;;;;;11.77;8.55;;;;;;;;;;4418943;32;20417;-53
2021/05/27 02:04:59;;;;;;;10.38;8.68;;;;;;;;;;4418519;32;20300;-53
2021/05/27 02:07:27;;;;;;;15.93;8.38;;;;;;;;;;4418665;32;20233;-53
2021/05/27 02:09:53;;;;;;;10.85;9.20;;;;;;;;;;4418780;32;20217;-53
2021/05/27 02:12:18;;;;;;;11.18;8.70;;;;;;;;;;4410675;32;20327;-53
2021/05/27 02:14:43;;;;;;;14.68;8.95;;;;;;;;;;4403549;32;20546;-53
2021/05/27 02:17:09;;;;;;;13.27;9.00;;;;;;;;;;4403879;32;20267;-53
2021/05/27 02:19:35;;;;;;;11.27;9.82;;;;;;;;;;4412743;32;20189;-52
2021/05/27 02:22:00;;;;;;;15.18;8.25;;;;;;;;;;4418314;32;20236;-52
2021/05/27 02:24:26;;;;;;;14.15;8.40;;;;;;;;;;4418544;32;20697;-52
2021/05/27 02:26:52;;;;;;;14.45;9.00;;;;;;;;;;4418646;32;20589;-51
2021/05/27 02:29:17;;;;;;;14.75;8.18;;;;;;;;;;4405156;32;20267;-52
2021/05/27 02:31:43;;;;;;;13.77;8.75;;;;;;;;;;4412304;32;20641;-52
2021/05/27 02:34:08;;;;;;;18.20;9.52;;;;;;;;;;4418860;32;20555;-51
2021/05/27 02:36:34;;;;;;;20.83;9.95;;;;;;;;;;4417668;32;20614;-52
2021/05/27 02:38:59;;;;;;;13.80;8.40;;;;;;;;;;4418292;32;20217;-52
2021/05/27 02:41:25;;;;;;;16.87;9.27;;;;;;;;;;4418362;32;20692;-53
2021/05/27 02:43:51;;;;;;;18.98;9.30;;;;;;;;;;4410191;32;20690;-51
2021/05/27 02:46:17;;;;;;;14.63;8.80;;;;;;;;;;4403403;32;20315;-52
2021/05/27 02:48:43;;;;;;;9.02;8.13;;;;;;;;;;4403339;32;20396;-52
2021/05/27 02:51:08;;;;;;;14.07;8.93;;;;;;;;;;4403068;32;20583;-52
2021/05/27 02:53:34;;;;;;;13.68;9.55;;;;;;;;;;4403266;32;20201;-52
2021/05/27 02:55:59;;;;;;;11.40;8.65;;;;;;;;;;4403253;32;20257;-52
2021/05/27 02:58:25;;;;;;;12.57;9.75;;;;;;;;;;4403020;32;20228;-52
2021/05/27 03:00:52;;;;;;;13.40;9.40;;;;;;;;;;4403343;32;20336;-53
2021/05/27 03:03:20;;;;;;;20.73;9.70;;;;;;;;;;4403116;32;20214;-53
2021/05/27 03:05:46;;;;;;;15.65;9.15;;;;;;;;;;4403014;32;20214;-52
2021/05/27 03:08:12;;;;;;;15.27;10.10;;;;;;;;;;4402598;32;20375;-52
2021/05/27 03:10:37;;;;;;;11.50;9.52;;;;;;;;;;4403423;32;20295;-52
2021/05/27 03:13:03;;;;;;;11.50;8.70;;;;;;;;;;4415428;32;20232;-52
2021/05/27 03:15:29;;;;;;;10.30;8.32;;;;;;;;;;4418050;32;20264;-54
2021/05/27 03:17:54;;;;;;;14.77;9.43;;;;;;;;;;4418207;32;20255;-52
2021/05/27 03:20:20;;;;;;;12.82;8.52;;;;;;;;;;4403644;32;20284;-52
2021/05/27 03:22:45;;;;;;;17.40;8.95;;;;;;;;;;4388801;32;20224;-52
2021/05/27 03:25:11;;;;;;;17.55;8.77;;;;;;;;;;4402863;32;20276;-51
2021/05/27 03:27:37;;;;;;;13.90;8.65;;;;;;;;;;4402773;32;20233;-53
2021/05/27 03:30:04;;;;;;;11.90;8.32;;;;;;;;;;4402802;32;20265;-53
2021/05/27 03:32:29;;;;;;;14.82;8.85;;;;;;;;;;4416310;32;20562;-53
2021/05/27 03:34:55;;;;;;;14.80;9.48;;;;;;;;;;4417916;32;20228;-53
2021/05/27 03:37:20;;;;;;;12.73;9.93;;;;;;;;;;4418067;32;20303;-53
2021/05/27 03:42:30;;;;;;;19.98;9.73;;;;;;;;;;4418176;32;20251;-53
2021/05/27 03:44:55;;;;;;;15.32;10.07;;;;;;;;;;4403077;32;20535;-53
2021/05/27 03:47:21;;;;;;;12.18;9.18;;;;;;;;;;4403730;32;20288;-53
2021/05/27 03:49:46;;;;;;;13.45;10.02;;;;;;;;;;4405908;32;20205;-53
2021/05/27 03:52:12;;;;;;;11.65;8.73;;;;;;;;;;4405759;32;20311;-53
2021/05/27 03:54:38;;;;;;;10.25;9.25;;;;;;;;;;4405924;32;20442;-53
2021/05/27 03:57:03;;;;;;;12.40;10.60;;;;;;;;;;4405888;32;20248;-53
2021/05/27 04:02:13;;;;;;;14.07;11.07;;;;;;;;;;4405717;32;20248;-53
2021/05/27 04:07:25;;;;;;;21.27;11.68;;;;;;;;;;4405469;32;20291;-53
2021/05/27 04:09:51;;;;;;;22.85;12.82;;;;;;;;;;4405606;32;20594;-53
2021/05/27 04:17:44;;;;;;;22.50;12.88;;;;;;;;;;4420432;32;20243;-53
2021/05/27 04:20:11;;;;;;;19.62;11.05;;;;;;;;;;4407548;32;20292;-54
2021/05/27 04:22:39;;;;;;;15.23;10.90;;;;;;;;;;4405422;32;20249;-52
2021/05/27 04:25:04;;;;;;;14.38;10.75;;;;;;;;;;4405015;32;20202;-53
2021/05/27 04:27:30;;;;;;;16.95;12.37;;;;;;;;;;4405130;32;20877;-53
2021/05/27 04:29:55;;;;;;;17.48;11.57;;;;;;;;;;4404992;32;20366;-53
2021/05/27 04:35:05;;;;;;;12.95;11.55;;;;;;;;;;4420007;32;20736;-52
2021/05/27 04:37:31;;;;;;;19.05;12.50;;;;;;;;;;4420140;32;20229;-52
2021/05/27 04:39:56;;;;;;;15.32;11.57;;;;;;;;;;4419758;32;20206;-52
2021/05/27 04:42:22;;;;;;;22.00;12.30;;;;;;;;;;4420125;32;20325;-52
2021/05/27 04:44:47;;;;;;;15.90;11.30;;;;;;;;;;4405746;32;20239;-52
2021/05/27 04:47:13;;;;;;;16.52;12.77;;;;;;;;;;4404904;32;20234;-52
2021/05/27 04:49:38;;;;;;;11.30;10.02;;;;;;;;;;4390750;32;20225;-52
2021/05/27 04:52:04;;;;;;;14.93;12.32;;;;;;;;;;4404430;32;20313;-52
2021/05/27 04:54:30;;;;;;;20.40;13.43;;;;;;;;;;4404337;32;20650;-52
2021/05/27 04:56:55;;;;;;;22.42;12.52;;;;;;;;;;4404669;32;20621;-52
2021/05/27 04:59:20;;;;;;;21.37;12.32;;;;;;;;;;4389666;32;20237;-52
2021/05/27 05:01:46;;;;;;;21.77;13.18;;;;;;;;;;4403828;32;20310;-52
2021/05/27 05:04:11;;;;;;;17.05;12.23;;;;;;;;;;4403574;32;20407;-52
2021/05/27 05:06:38;;;;;;;16.08;12.65;;;;;;;;;;4404106;32;20248;-52
2021/05/27 05:09:03;;;;;;;21.30;13.43;;;;;;;;;;4403586;32;20315;-52
2021/05/27 05:11:29;;;;;;;16.25;12.63;;;;;;;;;;4406702;32;20225;-53
2021/05/27 05:13:54;;;;;;;19.48;13.82;;;;;;;;;;4418998;32;20602;-53
2021/05/27 05:16:20;;;;;;;15.00;13.45;;;;;;;;;;4418912;32;20554;-53
2021/05/27 05:18:45;;;;;;;19.20;13.52;;;;;;;;;;4414173;32;20291;-53
2021/05/27 05:21:11;;;;;;;22.62;15.20;;;;;;;;;;4403644;32;20286;-53
2021/05/27 05:23:36;;;;;;;19.17;13.23;;;;;;;;;;4403440;32;20205;-53
2021/05/27 05:26:01;;;;;;;26.77;13.45;;;;;;;;;;4403578;32;20740;-53
2021/05/27 05:28:27;;;;;;;20.33;13.00;;;;;;;;;;4402999;32;20492;-53
2021/05/27 05:30:52;;;;;;;21.90;13.50;;;;;;;;;;4406904;32;20383;-53
2021/05/27 05:33:18;;;;;;;23.50;14.02;;;;;;;;;;4418078;32;20250;-53
2021/05/27 05:35:43;;;;;;;15.73;11.88;;;;;;;;;;4417796;32;20280;-53
2021/05/27 05:38:09;;;;;;;16.65;11.85;;;;;;;;;;4418266;32;20221;-52
2021/05/27 05:40:35;;;;;;;18.05;12.45;;;;;;;;;;4418304;32;20338;-52
2021/05/27 05:43:00;;;;;;;17.65;13.27;;;;;;;;;;4415851;32;20324;-52
2021/05/27 05:45:27;;;;;;;16.98;13.88;;;;;;;;;;4403371;32;20768;-52
2021/05/27 05:47:52;;;;;;;35.50;13.90;;;;;;;;;;4403550;32;20300;-53
2021/05/27 05:53:08;;;;;;;23.52;13.05;;;;;;;;;;4403620;32;20279;-52
2021/05/27 05:55:34;;;;;;;20.15;12.57;;;;;;;;;;4403462;32;20618;-52
2021/05/27 05:58:00;;;;;;;26.62;13.52;;;;;;;;;;4403026;32;20214;-52
2021/05/27 06:00:26;;;;;;;21.37;13.73;;;;;;;;;;4402563;32;20711;-53
2021/05/27 06:02:51;;;;;;;20.25;13.90;;;;;;;;;;4402569;32;20273;-52
2021/05/27 06:05:17;;;;;;;20.70;12.80;;;;;;;;;;4401968;32;20501;-53
2021/05/27 06:07:42;;;;;;;23.02;12.75;;;;;;;;;;4411346;32;20657;-52
2021/05/27 06:10:08;;;;;;;18.98;12.25;;;;;;;;;;4417699;32;20325;-52
2021/05/27 06:12:34;;;;;;;15.15;12.55;;;;;;;;;;4407437;32;20246;-52
2021/05/27 06:14:59;;;;;;;20.70;11.45;;;;;;;;;;4402868;32;20282;-52
2021/05/27 06:17:25;;;;;;;15.70;13.02;;;;;;;;;;4402572;32;20216;-52
2021/05/27 06:19:50;;;;;;;21.80;13.18;;;;;;;;;;4402318;32;20198;-52
2021/05/27 06:22:16;;;;;;;16.83;12.43;;;;;;;;;;4402414;32;20309;-52
2021/05/27 06:24:41;;;;;;;17.70;12.23;;;;;;;;;;4402341;32;20471;-52
2021/05/27 06:27:07;;;;;;;22.60;12.48;;;;;;;;;;4404428;32;20244;-52
2021/05/27 06:29:32;;;;;;;22.23;12.37;;;;;;;;;;4402746;32;20228;-52
2021/05/27 06:31:58;;;;;;;25.42;12.75;;;;;;;;;;4412853;32;20534;-52
2021/05/27 06:34:23;;;;;;;23.23;13.10;;;;;;;;;;4417203;32;20608;-52
2021/05/27 06:36:48;;;;;;;18.62;13.02;;;;;;;;;;4417414;32;20286;-52
2021/05/27 06:39:14;;;;;;;21.58;12.68;;;;;;;;;;4417632;32;20205;-53
2021/05/27 06:41:40;;;;;;;15.80;12.43;;;;;;;;;;4417375;32;20603;-52
2021/05/27 06:44:05;;;;;;;17.20;12.63;;;;;;;;;;4380939;32;20291;-52
2021/05/27 06:46:31;;;;;;;19.42;13.70;;;;;;;;;;4402299;32;20209;-52
2021/05/27 06:48:57;;;;;;;14.02;12.57;;;;;;;;;;4402143;32;20231;-52
2021/05/27 06:51:22;;;;;;;18.37;12.43;;;;;;;;;;4402127;32;20304;-52
2021/05/27 06:53:48;;;;;;;17.27;12.65;;;;;;;;;;4402175;32;20630;-52
2021/05/27 06:56:13;;;;;;;17.58;11.60;;;;;;;;;;4402128;32;20221;-52
2021/05/27 06:58:39;;;;;;;16.27;12.95;;;;;;;;;;4401963;32;20205;-52
2021/05/27 07:01:05;;;;;;;19.37;12.82;;;;;;;;;;4401866;32;20302;-51
2021/05/27 07:03:30;;;;;;;17.73;14.35;;;;;;;;;;4402269;32;20236;-52
2021/05/27 07:05:57;;;;;;;18.42;13.95;;;;;;;;;;4401871;32;20360;-52
2021/05/27 07:08:23;;;;;;;17.80;13.25;;;;;;;;;;4402198;32;20420;-53
2021/05/27 07:10:48;;;;;;;21.65;14.32;;;;;;;;;;4402115;32;20399;-53
2021/05/27 07:13:13;;;;;;;22.08;13.68;;;;;;;;;;4415818;32;20601;-52
2021/05/27 07:15:39;;;;;;;19.05;14.70;;;;;;;;;;4417379;32;20296;-52
2021/05/27 07:18:06;;;;;;;21.98;14.40;;;;;;;;;;4403415;32;20259;-52
2021/05/27 07:20:31;;;;;;;16.98;13.50;;;;;;;;;;4402119;32;20336;-52
2021/05/27 07:22:57;;;;;;;24.42;14.25;;;;;;;;;;4401678;32;20213;-52
2021/05/27 07:25:24;;;;;;;19.48;13.98;;;;;;;;;;4401807;32;20260;-53
2021/05/27 07:27:51;;;;;;;14.50;13.02;;;;;;;;;;4401961;32;20364;-52
2021/05/27 07:30:18;;;;;;;16.02;12.75;;;;;;;;;;4402217;32;20210;-52
2021/05/27 07:32:44;;;;;;;20.17;16.25;;;;;;;;;;4402038;32;20221;-52
2021/05/27 07:35:10;;;;;;;17.45;13.70;;;;;;;;;;4405149;32;20327;-52
2021/05/27 07:37:36;;;;;;;18.80;14.95;;;;;;;;;;4417399;32;20221;-52
2021/05/27 07:40:02;;;;;;;19.35;15.38;;;;;;;;;;4417078;32;20560;-52
2021/05/27 07:42:28;;;;;;;20.65;14.60;;;;;;;;;;4417092;32;20882;-52
2021/05/27 07:44:54;;;;;;;18.77;14.77;;;;;;;;;;4402206;32;20267;-51
2021/05/27 07:47:19;;;;;;;18.02;14.80;;;;;;;;;;4401898;32;20268;-51
2021/05/27 07:49:44;;;;;;;16.60;14.38;;;;;;;;;;4401761;32;20201;-52
2021/05/27 07:52:10;;;;;;;16.40;14.48;;;;;;;;;;4401938;32;20691;-52
2021/05/27 07:54:35;;;;;;;15.95;14.25;;;;;;;;;;4401910;32;20202;-51
2021/05/27 07:57:01;;;;;;;22.58;14.23;;;;;;;;;;4401744;32;20255;-52
2021/05/27 07:59:27;;;;;;;16.48;14.77;;;;;;;;;;4401993;32;20217;-52
2021/05/27 08:01:52;;;;;;;16.65;13.88;;;;;;;;;;4401917;32;20288;-52
2021/05/27 08:04:18;;;;;;;17.60;14.02;;;;;;;;;;4401421;32;20193;-52
2021/05/27 08:06:43;;;;;;;19.92;15.55;;;;;;;;;;4401836;32;20241;-52
2021/05/27 08:09:10;;;;;;;16.08;14.27;;;;;;;;;;4401498;32;20610;-53
2021/05/27 08:11:43;;;;;;;20.35;15.00;;;;;;;;;;4404855;32;20232;-53
2021/05/27 08:14:09;;;;;;;19.83;14.02;;;;;;;;;;4402659;32;20260;-52
2021/05/27 08:16:34;;;;;;;16.23;13.32;;;;;;;;;;4417312;32;20236;-52
2021/05/27 08:19:00;;;;;;;21.58;15.15;;;;;;;;;;4411242;32;20279;-53
2021/05/27 08:21:27;;;;;;;20.23;14.27;;;;;;;;;;4401790;32;20378;-52
2021/05/27 08:23:52;;;;;;;19.45;14.73;;;;;;;;;;4401734;32;20264;-52
2021/05/27 08:26:18;;;;;;;23.38;15.65;;;;;;;;;;4401767;32;20718;-52
2021/05/27 08:28:44;;;;;;;19.62;15.32;;;;;;;;;;4401192;32;20248;-52
2021/05/27 08:31:09;;;;;;;29.45;16.42;;;;;;;;;;4406926;32;20209;-52
2021/05/27 08:33:35;;;;;;;24.48;17.15;;;;;;;;;;4416671;32;20205;-52
2021/05/27 08:36:00;;;;;;;21.15;16.77;;;;;;;;;;4418858;32;20291;-51
2021/05/27 08:38:25;;;;;;;25.33;16.70;;;;;;;;;;4419592;32;20268;-52
2021/05/27 08:40:54;;;;;;;19.80;17.75;;;;;;;;;;4419303;32;20349;-51
2021/05/27 08:43:20;;;;;;;29.58;19.40;;;;;;;;;;4414234;32;20214;-51
2021/05/27 08:45:47;;;;;;;28.05;18.67;;;;;;;;;;4404047;32;20341;-52
2021/05/27 08:48:15;;;;;;;28.35;18.83;;;;;;;;;;4404150;32;20630;-52
2021/05/27 08:50:44;;;;;;;22.58;18.67;;;;;;;;;;4403780;32;20218;-51
2021/05/27 08:53:10;;;;;;;23.73;17.80;;;;;;;;;;4403910;32;20217;-52
2021/05/27 08:55:36;;;;;;;21.85;17.75;;;;;;;;;;4403968;32;20299;-53
2021/05/27 08:58:01;;;;;;;28.90;16.92;;;;;;;;;;4404386;32;20285;-51
2021/05/27 09:00:27;;;;;;;18.40;16.50;;;;;;;;;;4403928;32;20727;-52
2021/05/27 09:03:02;;;;;;;19.05;16.60;;;;;;;;;;4403748;32;20222;-51
2021/05/27 09:05:35;;;;;;;24.58;18.62;;;;;;;;;;4403411;32;20638;-51
2021/05/27 09:08:01;;;;;;;37.22;21.45;;;;;;;;;;4403853;32;20282;-52
2021/05/27 09:10:40;;;;;;;33.50;22.62;;;;;;;;;;4403573;32;20292;-53
2021/05/27 09:13:15;;;;;;;28.08;18.25;;;;;;;;;;4416649;32;20299;-51
2021/05/27 09:15:42;;;;;;;24.37;18.95;;;;;;;;;;4419271;32;20259;-52
2021/05/27 09:18:07;;;;;;;22.98;20.58;;;;;;;;;;4418828;32;20373;-52
2021/05/27 09:20:34;;;;;;;38.47;21.37;;;;;;;;;;4404269;32;20697;-53
2021/05/27 09:23:17;;;;;;;23.52;20.25;;;;;;;;;;4403775;32;20306;-52
2021/05/27 09:25:46;;;;;;;27.85;21.20;;;;;;;;;;4403971;32;20391;-53
2021/05/27 09:28:19;;;;;;;30.95;20.45;;;;;;;;;;4403362;32;20349;-52
2021/05/27 09:30:47;;;;;;;22.05;19.15;;;;;;;;;;4406256;32;20325;-54
2021/05/27 09:33:14;;;;;;;25.98;23.35;;;;;;;;;;4404120;32;20229;-52
2021/05/27 09:35:40;;;;;;;27.33;21.30;;;;;;;;;;4418267;32;20231;-52
2021/05/27 09:38:06;;;;;;;28.52;24.33;;;;;;;;;;4418017;32;20217;-52
2021/05/27 09:40:39;;;;;;;26.58;22.45;;;;;;;;;;4404360;32;20406;-53
2021/05/27 09:43:06;;;;;;;31.52;20.83;;;;;;;;;;4415106;32;20221;-52
2021/05/27 09:45:33;;;;;;;23.40;20.45;;;;;;;;;;4402926;32;20677;-52
2021/05/27 09:48:16;;;;;;;31.98;21.45;;;;;;;;;;4403038;32;20268;-51
2021/05/27 09:50:42;;;;;;;27.62;21.17;;;;;;;;;;4403404;32;20303;-52
2021/05/27 09:53:19;;;;;;;21.98;19.75;;;;;;;;;;4402843;32;20229;-52
2021/05/27 09:55:45;;;;;;;22.02;19.12;;;;;;;;;;4402956;32;20201;-52
2021/05/27 09:58:13;;;;;;;34.45;18.80;;;;;;;;;;4403203;32;20267;-52
2021/05/27 10:00:40;;;;;;;24.83;18.87;;;;;;;;;;4403371;32;20190;-52
2021/05/27 10:03:28;;;;;;;22.60;18.42;;;;;;;;;;4402677;32;20677;-51
2021/05/27 10:05:55;;;;;;;25.42;21.42;;;;;;;;;;4402586;32;20217;-51
2021/05/27 10:08:21;;;;;;;25.02;19.83;;;;;;;;;;4402781;32;20585;-51
2021/05/27 10:10:48;;;;;;;29.02;21.27;;;;;;;;;;4402960;32;20268;-53
2021/05/27 10:13:15;;;;;;;27.65;19.50;;;;;;;;;;4402593;32;20815;-52
2021/05/27 10:15:43;;;;;;;31.00;19.70;;;;;;;;;;4388882;32;20311;-52
2021/05/27 10:18:13;;;;;;;22.50;19.62;;;;;;;;;;4403050;32;20633;-51
2021/05/27 10:20:39;;;;;;;26.62;19.35;;;;;;;;;;4417749;32;20224;-52
2021/05/27 10:23:06;;;;;;;27.30;20.48;;;;;;;;;;4416998;32;20210;-51
2021/05/27 10:25:32;;;;;;;22.77;19.85;;;;;;;;;;4417713;32;20212;-52
2021/05/27 10:28:00;;;;;;;31.02;20.92;;;;;;;;;;4417700;32;20217;-52
2021/05/27 10:30:26;;;;;;;23.35;20.10;;;;;;;;;;4417751;32;20202;-52
2021/05/27 10:32:59;;;;;;;35.50;20.80;;;;;;;;;;4418097;32;20732;-52
2021/05/27 10:35:44;;;;;;;22.65;20.45;;;;;;;;;;4413239;32;20273;-52
2021/05/27 10:38:10;;;;;;;30.35;21.52;;;;;;;;;;4402874;32;20256;-52
2021/05/27 10:40:37;;;;;;;28.98;22.83;;;;;;;;;;4403085;32;20277;-53
2021/05/27 10:43:13;;;;;;;33.65;21.15;;;;;;;;;;4405773;32;20326;-53
2021/05/27 10:45:57;;;;;;;21.85;19.30;;;;;;;;;;4418032;32;20181;-52
2021/05/27 10:48:25;;;;;;;24.70;19.77;;;;;;;;;;4417368;32;20720;-53
2021/05/27 10:53:39;;;;;;;21.67;17.73;;;;;;;;;;4417574;32;20228;-53
2021/05/27 10:56:10;;;;;;;26.27;19.02;;;;;;;;;;4417348;32;20243;-52
2021/05/27 10:58:54;;;;;;;26.00;17.55;;;;;;;;;;4417635;32;20260;-53
2021/05/27 11:01:28;;;;;;;23.45;18.75;;;;;;;;;;4417578;32;20247;-52
2021/05/27 11:03:54;;;;;;;34.55;20.50;;;;;;;;;;4417598;32;20666;-52
2021/05/27 11:06:30;;;;;;;23.02;18.92;;;;;;;;;;4417373;32;20233;-52
2021/05/27 11:09:33;;;;;;;21.90;18.75;;;;;;;;;;4417715;32;20283;-52
2021/05/27 11:12:35;;;;;;;23.40;19.05;;;;;;;;;;4399252;32;20294;-52
2021/05/27 11:15:01;;;;;;;24.30;19.05;;;;;;;;;;4325423;33;20211;-52
2021/05/27 11:17:27;;;;;;;22.70;19.77;;;;;;;;;;4387287;32;20618;-53
2021/05/27 11:23:15;;;;;;;28.40;20.52;;;;;;;;;;4355040;32;20293;-52
2021/05/27 11:25:41;;;;;;;46.40;29.77;;;;;;;;;;4355659;33;20390;-52
2021/05/27 11:28:13;;;;;;;39.70;23.67;;;;;;;;;;4384815;32;20568;-53
2021/05/27 11:30:41;;;;;;;46.22;25.33;;;;;;;;;;4404437;32;20348;-53
2021/05/27 11:33:12;;;;;;;34.67;25.08;;;;;;;;;;4416955;32;20294;-53
2021/05/27 11:35:38;;;;;;;37.63;25.73;;;;;;;;;;4417309;32;20272;-53
2021/05/27 11:38:05;;;;;;;54.25;26.90;;;;;;;;;;4403514;32;20240;-53
2021/05/27 11:40:34;;;;;;;46.92;26.77;;;;;;;;;;4417124;32;20232;-53
2021/05/27 11:43:00;;;;;;;40.35;26.77;;;;;;;;;;4417332;32;20286;-53
2021/05/27 11:45:27;;;;;;;46.60;28.45;;;;;;;;;;4417249;32;20272;-54
2021/05/27 11:48:14;;;;;;;51.65;30.75;;;;;;;;;;4417091;32;20287;-53
2021/05/27 11:50:40;;;;;;;41.90;28.48;;;;;;;;;;4417284;32;20201;-54
2021/05/27 11:53:05;;;;;;;40.22;29.10;;;;;;;;;;4416876;32;20504;-53
2021/05/27 11:55:32;;;;;;;31.83;23.75;;;;;;;;;;4417224;32;20700;-54
2021/05/27 11:57:57;;;;;;;24.70;13.98;;;;;;;;;;4417454;32;20315;-54
2021/05/27 12:00:23;;;;;;;20.37;11.15;;;;;;;;;;4417279;32;20440;-54
2021/05/27 12:02:51;;;;;;;21.17;9.98;;;;;;;;;;4417497;32;20718;-53
2021/05/27 12:05:30;;;;;;;24.85;9.70;;;;;;;;;;4416965;32;20278;-54
2021/05/27 12:08:14;;;;;;;15.00;6.97;;;;;;;;;;4417334;32;20689;-54
2021/05/27 12:10:48;;;;;;;13.50;6.85;;;;;;;;;;4406477;32;20201;-54
2021/05/27 12:13:18;;;;;;;16.02;6.53;;;;;;;;;;4420497;32;20227;-54
2021/05/27 12:15:45;;;;;;;19.35;6.90;;;;;;;;;;4420198;32;20210;-53
2021/05/27 12:18:16;;;;;;;20.88;8.07;;;;;;;;;;4419323;32;20221;-53
2021/05/27 12:20:44;;;;;;;32.05;10.18;;;;;;;;;;4404920;32;20598;-54
2021/05/27 12:23:12;;;;;;;28.48;12.45;;;;;;;;;;4404996;32;20221;-53
2021/05/27 12:25:41;;;;;;;23.02;10.65;;;;;;;;;;4405033;32;20236;-54
2021/05/27 12:28:19;;;;;;;19.35;11.50;;;;;;;;;;4405113;32;20229;-53
2021/05/27 12:30:55;;;;;;;27.50;12.70;;;;;;;;;;4407860;32;20242;-53
2021/05/27 12:33:23;;;;;;;30.77;11.85;;;;;;;;;;4419845;32;20278;-53
2021/05/27 12:35:49;;;;;;;23.65;12.93;;;;;;;;;;4419605;32;20221;-55
2021/05/27 12:38:21;;;;;;;24.35;13.93;;;;;;;;;;4419916;32;20200;-53
2021/05/27 12:40:52;;;;;;;26.02;12.60;;;;;;;;;;4419632;32;20519;-54
2021/05/27 12:43:32;;;;;;;26.58;13.23;;;;;;;;;;4420069;32;20571;-53
2021/05/27 12:45:58;;;;;;;35.80;13.70;;;;;;;;;;4420318;32;20177;-53
2021/05/27 12:48:24;;;;;;;27.00;13.77;;;;;;;;;;4419650;32;20322;-54
2021/05/27 12:50:56;;;;;;;24.48;12.90;;;;;;;;;;4419625;32;20213;-53
2021/05/27 12:53:22;;;;;;;28.80;13.30;;;;;;;;;;4419585;32;20202;-53
2021/05/27 12:55:48;;;;;;;39.45;14.82;;;;;;;;;;4419551;32;20205;-55
2021/05/27 12:58:26;;;;;;;21.83;13.45;;;;;;;;;;4419948;32;20262;-54
2021/05/27 13:00:52;;;;;;;32.50;13.05;;;;;;;;;;4419783;32;20591;-54
2021/05/27 13:03:17;;;;;;;31.33;12.45;;;;;;;;;;4407309;32;20217;-54
2021/05/27 13:05:43;;;;;;;24.70;14.73;;;;;;;;;;4404011;32;20256;-54
2021/05/27 13:08:09;;;;;;;19.98;13.50;;;;;;;;;;4403913;32;20291;-53
2021/05/27 13:10:40;;;;;;;20.17;12.37;;;;;;;;;;4405028;32;20322;-55
2021/05/27 13:13:07;;;;;;;27.13;11.90;;;;;;;;;;4417608;32;20651;-54
2021/05/27 13:15:49;;;;;;;22.80;14.38;;;;;;;;;;4419824;32;20268;-54
2021/05/27 13:18:16;;;;;;;25.58;17.33;;;;;;;;;;4418574;32;20605;-53
2021/05/27 13:21:11;;;;;;;27.05;13.57;;;;;;;;;;4403740;32;20289;-54
2021/05/27 13:23:38;;;;;;;28.98;14.82;;;;;;;;;;4390998;32;20286;-53
2021/05/27 13:26:11;;;;;;;27.17;13.52;;;;;;;;;;4404587;32;20248;-54
2021/05/27 13:28:37;;;;;;;19.83;13.62;;;;;;;;;;4404276;32;20247;-53
2021/05/27 13:31:03;;;;;;;27.02;12.18;;;;;;;;;;4408887;32;20296;-54
2021/05/27 13:33:28;;;;;;;22.17;12.15;;;;;;;;;;4416771;32;20222;-54
2021/05/27 13:36:00;;;;;;;25.85;10.80;;;;;;;;;;4417247;32;20382;-53
2021/05/27 13:38:28;;;;;;;25.23;10.75;;;;;;;;;;4419364;32;20620;-53
2021/05/27 13:40:53;;;;;;;17.80;9.27;;;;;;;;;;4418381;32;20201;-53
2021/05/27 13:43:19;;;;;;;20.75;9.55;;;;;;;;;;4412489;32;20248;-53
2021/05/27 13:45:45;;;;;;;18.08;7.87;;;;;;;;;;4403990;32;20326;-55
2021/05/27 13:48:11;;;;;;;19.60;7.87;;;;;;;;;;4403972;32;20574;-53
2021/05/27 13:50:37;;;;;;;28.17;8.55;;;;;;;;;;4403170;32;20291;-54
2021/05/27 13:53:06;;;;;;;16.55;8.50;;;;;;;;;;4403758;32;20356;-55
2021/05/27 13:55:34;;;;;;;14.27;8.15;;;;;;;;;;4403752;32;20190;-53
2021/05/27 13:58:01;;;;;;;17.98;10.00;;;;;;;;;;4404175;32;20217;-53
2021/05/27 14:00:27;;;;;;;14.52;8.50;;;;;;;;;;4404097;32;20298;-53
2021/05/27 14:02:53;;;;;;;15.10;8.02;;;;;;;;;;4403916;32;20309;-53
2021/05/27 14:05:19;;;;;;;21.02;8.80;;;;;;;;;;4403594;32;20309;-53
2021/05/27 14:07:49;;;;;;;11.90;7.22;;;;;;;;;;4404067;32;20286;-53
2021/05/27 14:10:15;;;;;;;15.52;7.78;;;;;;;;;;4404061;32;20563;-53
2021/05/27 14:12:41;;;;;;;18.98;7.45;;;;;;;;;;4413878;32;20245;-53
2021/05/27 14:15:07;;;;;;;11.57;6.37;;;;;;;;;;4418939;32;20225;-54
2021/05/27 14:17:33;;;;;;;12.77;7.68;;;;;;;;;;4405544;32;20225;-54
2021/05/27 14:19:59;;;;;;;12.40;7.07;;;;;;;;;;4406971;32;20255;-53
2021/05/27 14:22:24;;;;;;;17.60;8.43;;;;;;;;;;4403995;32;20234;-53
2021/05/27 14:24:50;;;;;;;15.13;8.88;;;;;;;;;;4404049;32;20209;-53
2021/05/27 14:27:15;;;;;;;17.10;9.50;;;;;;;;;;4404329;32;20538;-54
2021/05/27 14:29:41;;;;;;;17.45;9.50;;;;;;;;;;4390273;32;20233;-53
2021/05/27 14:32:07;;;;;;;20.42;9.43;;;;;;;;;;4414663;32;20260;-53
2021/05/27 14:34:32;;;;;;;17.65;10.50;;;;;;;;;;4419411;32;20298;-53
2021/05/27 14:36:58;;;;;;;19.30;11.25;;;;;;;;;;4418702;32;20281;-54
2021/05/27 14:39:23;;;;;;;21.73;10.30;;;;;;;;;;4419102;32;20644;-55
2021/05/27 14:41:51;;;;;;;17.17;11.20;;;;;;;;;;4418612;32;20234;-55
2021/05/27 14:44:16;;;;;;;20.90;11.48;;;;;;;;;;4407621;32;20244;-53
2021/05/27 14:46:42;;;;;;;14.70;11.32;;;;;;;;;;4403470;32;20296;-53